AirNav   Air Wisconsin pilot careers
 
 889 users online  

KRAL Riverside Municipal Airport
Riverside, California, USA

GOING TO RIVERSIDE?


FAA INFORMATION EFFECTIVE 11 OCTOBER 2018

Location

FAA Identifier: RAL
Lat/Long: 33-57-06.8000N / 117-26-42.4000W
33-57.113333N / 117-26.706667W
33.9518889 / -117.4451111
(estimated)
Elevation: 818.9 ft. / 249.6 m (surveyed)
Variation: 14E (2000)
From city: 4 miles SW of RIVERSIDE, CA
Time zone: UTC -7 (UTC -8 during Standard Time)
Zip code: 92503

Airport Operations

Airport use: Open to the public
Activation date: 04/1940
Control tower: yes
ARTCC: LOS ANGELES CENTER
FSS: RIVERSIDE FLIGHT SERVICE STATION
NOTAMs facility: RAL (NOTAM-D service available)
Attendance: M-F 0700-1700, ALL S-S 0600-1600
Pattern altitude: TPA LGT ACFT 1000'; JET AND ALL OTHER ACFT 1500'.
Wind indicator: lighted
Segmented circle: yes
Lights: ACTVT MIRL RWYS 09/27 & 16/34; TWY LGTS; HELI PERI LGTS - CTAF. PAPI RWYS 09, 27 & 34 OPR CONSLY.

Airport Communications

CTAF: 121.0
UNICOM: 122.95
ATIS: 128.8
WX ASOS: PHONE 951-352-4392
RIVERSIDE GROUND: 121.7 [0700-2000]
RIVERSIDE TOWER: 121.0 257.8 [0700-2000]
SOCAL APPROACH: 135.4
SOCAL DEPARTURE: 135.4
WX AWOS-3PT at AJO (8 nm SW): 132.175 (951-340-4764)
WX ASOS at CNO (10 nm W): PHONE 909-393-5823
WX ASOS at ONT (10 nm NW): PHONE 909-937-2186
WX AWOS-3 at SBD (14 nm NE): 124.175 (909-382-0067)
WX AWOS-3P at CCB (15 nm NW): 119.525 (909-985-4731)
WX AWOS-3PT at POC (19 nm NW): 124.4 (909-596-1523)
  • FOR CLNC DEL WHEN ATCT CLSD CALL SOCAL APCH (800) 448-3724.

Nearby radio navigation aids

VOR radial/distance  VOR name  Freq  Var
RAL at fieldRIVERSIDE VOR112.4014E
PDZr050/4.7PARADISE VORTAC112.2015E
HDFr295/(16.7)HOMELAND VOR113.4014E
POMr099/18.6POMONA VORTAC110.4015E
ELBr027/21.8EL TORO VOR/DME117.2014E
SLIr057/32.0SEAL BEACH VORTAC115.7015E
VCVr170/38.6VICTORVILLE VOR/DME109.0514E

 
NDB name  Hdg/Dist  Freq  Var  ID
PETIS198/7.439714ESB ... -...
EL MONTE091/30.335915EEMT . -- -

Airport Services

Fuel available: 100LL JET-A
FOR FUEL AFTER HRS CALL (951) 321-0091.
Parking: tiedowns
Airframe service: MAJOR
Powerplant service: MAJOR
Bottled oxygen: HIGH/LOW
Bulk oxygen: HIGH/LOW

Runway Information

Runway 9/27

Dimensions: 5401 x 100 ft. / 1646 x 30 m
Surface: asphalt, in good condition
Weight bearing capacity: 
Single wheel: 48.0
Double wheel: 70.0
Double tandem: 110.0
Runway edge lights: medium intensity
RUNWAY 9  RUNWAY 27
Latitude: 33-57.233243N33-57.032202N
Longitude: 117-27.118152W117-26.077353W
Elevation: 760.4 ft.818.6 ft.
Gradient: 1.1%1.1%
Traffic pattern: leftleft
Runway heading: 089 magnetic, 103 true269 magnetic, 283 true
Markings: precision, in fair conditionnonprecision, in fair condition
Visual slope indicator: 4-light PAPI on left (3.00 degrees glide path)4-light PAPI on left (3.00 degrees glide path)
Runway end identifier lights: nono
Touchdown point: yes, no lightsyes, no lights
Instrument approach: ILS
Obstructions: none37 ft. gnd, 1155 ft. from runway, 520 ft. right of centerline, 25:1 slope to clear
SUPPLEMENTAL WIND CONE 0 FT FM THR 350 FT S OF RY CNTRLN.

Runway 16/34

Dimensions: 2850 x 50 ft. / 869 x 15 m
Surface: asphalt, in fair condition
Weight bearing capacity: 
Single wheel: 40.0, LTD BY ARPT OPERATOR TO 12500 LBS SINGLE WHEEL GEAR.
Double wheel: 50.0
Double tandem: 80.0
Runway edge lights: medium intensity
RUNWAY 16  RUNWAY 34
Latitude: 33-57.309280N33-56.839580N
Longitude: 117-26.918280W117-26.903997W
Elevation: 774.5 ft.750.6 ft.
Gradient: 0.8%0.8%
Traffic pattern: rightleft
Runway heading: 165 magnetic, 179 true345 magnetic, 359 true
Markings: basic, in good conditionbasic, in good condition
Visual slope indicator: 2-light PAPI on left (3.00 degrees glide path)
Runway end identifier lights: nono
Touchdown point: yes, no lightsyes, no lights

Helipad H1

Dimensions: 60 x 60 ft. / 18 x 18 m
Surface: asphalt, in good condition
Runway edge lights: PERI
Traffic pattern: leftleft

Airport Ownership and Management from official FAA records

Ownership: Publicly-owned
Owner: CITY OF RIVERSIDE
6951 FLIGHT ROAD
RIVERSIDE, CA 92504
Phone 951-351-6113
Manager: MR. KIM ELLIS
6951 FLIGHT ROAD
RIVERSIDE, CA 92504
Phone 951-351-6113

Airport Operational Statistics

Aircraft based on the field: 178
Single engine airplanes: 149
Multi engine airplanes: 20
Jet airplanes: 3
Helicopters: 6
    
Aircraft operations: avg 277/day *
55% local general aviation
41% transient general aviation
3% air taxi
<1% military
* for 12-month period ending 31 December 2017

Additional Remarks

ACFT DEP RYS 09 & 27 NOT VSBL TO ACFT AT OTHER END OF RY.
NUMEROUS POWER LINES 1,780 - 2,887 FEET NORTH OF RY 16 THLD AT OR BLO 80 FEET AGL.
S 1,400 FT OF RWY 34 & TWY J AND S 500 FT OF TWY B NOT VSB FM TWR.
TWY E STEEP SLOPE
TWY L NOT VSB FM TWR.
RY 27 -20 FT DITCH 50 FT FM RY END.
POWER PLANT 3,000 FT NORTH OF RY 16 THLD PRODUCING THERMAL PLUME, AVOIDANCE ADZD,

Instrument Procedures

NOTE: All procedures below are presented as PDF files. If you need a reader for these files, you should download the free Adobe Reader.

NOT FOR NAVIGATION. Please procure official charts for flight.
FAA instrument procedures published for use from 11 October 2018 at 0901Z to 8 November 2018 at 0900Z.

 
STARs - Standard Terminal Arrivals
SETER FIVE   download (260KB)
ZIGGY SEVEN   2 pages: [1] [2] (411KB)
 
IAPs - Instrument Approach Procedures
ILS OR LOC RWY 09   download (317KB)
RNAV (GPS) RWY 09   download (286KB)
RNAV (GPS) RWY 27   download (259KB)
VOR RWY 09   download (229KB)
VOR-A   download (248KB)
NOTE: Special Alternate Minimums apply   download (31KB)
NOTE: Special Take-Off Minimums/Departure Procedures apply   download (132KB)

Other nearby airports with instrument procedures:

KRIR - Flabob Airport (3 nm NE)
KAJO - Corona Municipal Airport (8 nm SW)
KCNO - Chino Airport (10 nm W)
KONT - Ontario International Airport (10 nm NW)
KRIV - March Air Reserve Base (10 nm SE)
KSBD - San Bernardino International Airport (14 nm NE)
KCCB - Cable Airport (15 nm NW)
KREI - Redlands Municipal Airport (17 nm NE)
KPOC - Brackett Field Airport (19 nm NW)
 
Loc | Ops | Rwys | IFR | FBO | Links
Com | Nav | Svcs | Stats | Notes

San Bernardino International Airport Authority
 
Area around KRAL (Riverside Municipal Airport)
 
Road maps at: MapQuest Bing Google
 
Aerial photo
WARNING: Photo may not be current or correct
Aerial photo of KRAL (Riverside Municipal Airport)
Photo by Fred Emmert AirViews.com
Photo taken 10-Dec-2014
looking northeast.

Do you have a better or more recent aerial photo of Riverside Municipal Airport that you would like to share? If so, please send us your photo.

 
Sectional chart

 
Airport diagram
CAUTION: Diagram may not be current
Diagram of KRAL (Riverside Municipal Airport)
Download PDF
of official airport diagram from the FAA

 
Airport distance calculator
Flying to Riverside Municipal Airport? Find the distance to fly.

From to KRAL

Sunrise and sunset
Times for 18-Oct-2018
 Local
(UTC-7)
 Zulu
(UTC)
Morning civil twilight06:3313:33
Sunrise06:5813:58
Sunset18:1201:12
Evening civil twilight18:3701:37

Current date and time
Zulu (UTC)  19-Oct-2018 02:53:01
Local (UTC-7)  18-Oct-2018 19:53:01
 
METAR
KRAL 190153Z 09003KT 10SM CLR 26/M01 A3000 RMK AO2 SLP147 T02561011
KAJO 
8nm SW 
190156Z AUTO 29007KT 10SM CLR 24/03 A3001 RMK AO2 SLP172 T02390028 $
KCNO 
9nm W 
190153Z 27009KT 10SM CLR 23/01 A3002 RMK AO2 SLP163 T02330011
KONT 
9nm NW 
190153Z 33005KT 10SM CLR 24/02 A3001 RMK AO2 SLP153 T02440022
KRIV 
10nm SE 
190158Z AUTO 05004KT 10SM CLR 24/M02 A3003 RMK AO2 SLP163 T02431023 PNO $
KSBD 
14nm NE 
182250Z 00000KT 7SM SKC 30/M02 A2999
KCCB 
15nm NW 
119.525 909-985-4731
190235Z AUTO 00000KT 10SM CLR 22/01 A3004 RMK AO2
KREI 
17nm NE 
SuperAWOS
181855Z AUTO 24004KT 10SM 25/M02 A3008
KPOC 
18nm NW 
190147Z 00000KT 10SM CLR 22/02 A3003
TAF
KONT 
9nm NW 
181732Z 1818/1924 VRB03KT P6SM SKC FM182100 28009KT P6SM SKC FM190400 04005KT P6SM SKC FM190700 04005KT P6SM SKC WS010/03025KT FM191100 04007KT P6SM SKC FM191400 04010G18KT P6SM SKC
KRIV 
10nm SE 
1820/2002 31009KT 9999 SKC QNH3000INS TEMPO 1821/1901 33010G15KT BECMG 1901/1902 VRB04KT 9999 SKC QNH3006INS BECMG 1918/1919 04012KT 9999 SKC QNH2998INS TEMPO 1920/2000 03015G25KT TX28/1822Z TN09/1914Z
KSBD 
14nm NE 
181732Z 1818/1918 VRB04KT P6SM SKC FM182100 27009KT P6SM SKC FM190400 02005KT P6SM SKC FM191100 02005KT P6SM SKC WS010/04020KT FM191500 04008G15KT P6SM SKC
NOTAMs
Click for the latest NOTAMs
NOTAMs are issued by the DoD/FAA and will open in a separate window not controlled by AirNav.

 

 
 

FBO, Fuel Providers, and Aircraft Ground Support

  
 Business Name 
 
 Contact 
 
 Services / Description 
 
Fuel Prices
 
Comments
  
Riverside Air Service UNICOM 122.95
951-352-2631
951-352-1043
[web site]
[email]
Riverside Air Service is the only Full Service FBO at Riverside Airport. From our quaint barn style passenger lounge to our excellent customer service, we are the superior choice when visiting the inland empire region. A Private and secure setting, we are the premier choice over ONT and CNO. We cater to discerning clientele no matter what they fly or fly in! Customer service is paramount, and every visiting aircraft receives our premier service. At just 3 miles away, downtown Riverside boasts the Historic Mission Inn, Fox Theater and a charming town center. Come visit, you'll be impressed!
More info and photos of Riverside Air Service
 
U.S. Government AIR Card   Avfuel Contract Fuel   UVair   World Fuel | Colt Contract Fuel   AVTRIP   Contract Fuel   Crew cars   Enterprise Rent-A-Car   Hertz  
 
Avfuel
100LL Jet A
FS $5.22 $4.11 
SS $4.87 --- 
GUARANTEED
 
   4 read write
 Raincross Fuel & Oil, Inc.
951-359-7233
[web site]
[email]
Aviation fuel

More info about Raincross Fuel & Oil, Inc.
Phillips 66
100LL
SS $4.49 
 Updated 08-Oct-2018
 
   write
FS=Full service
SS=Self service
Update Fuel Prices
 

Aviation Businesses, Services, and Facilities

  
 Business Name 
 
 Contact 
 
 Services / Description 
 
Distance
 
Comments
  
Airline Transport Professionals - ATP Flight School toll-free 1-800-255-2877
[web site]
[email]
ATP provides professional, accelerated, airline-oriented flight training at 42 flight schools nationwide. ATP's Airline Career Pilot Program prepares pilots for airline careers from zero time to 1,500 hours, with CFI jobs and airline employment. Fly with the nation's largest flight school and gain access to more aircraft, locations, and job placements than any flight school, academy, or aviation university can offer.
More info and photos of Airline Transport Professionals - ATP Flight School
on airport  
   1 read write
Leading Edge Avionics
Leading Edge Avionics
toll-free 1-855-955-6151
[web site]
[email]

Like us on facebook See us on instagram Follow us on twitter
Leading Edge Avionics is a FAA Certified Part 145 Repair Station (137R236D) that provides outstanding avionics repair and installation services for all General Aviation aircraft from business jets to helicopters to single engine airplanes. We are committed to delivering our customers with services that ensure uncompromised safety and the highest quality of workmanship and reliability, while exceeding our clients' expectations on all levels. 24/7 AOG Service is also available at all Southern California airports, so call us at (855) 955-6151 and let us exceed all your service expectations!
More info and photos of Leading Edge Avionics
located at KSNA  
   write
 

Where to Eat: Catering, Restaurants, Food shops

  
 Business Name 
 
 Contact 
 
 Services / Description 
 
Distance
 
Comments
  
D&D Airport Cafe 951-688-3337
no information available

If you are affiliated with D&D Airport Cafe and would like to show here your services, contact info, web link, logo, and more, click here
on airport  
   write
 

Would you like to see your business listed on this page?

 If your business provides an interesting product or service to pilots, flight crews, aircraft, or users of the Riverside Municipal Airport, you should consider listing it here.  To start the listing process, click on the button below
 
Add a business
 

Other Pages about Riverside Municipal Airport

www.riversideca.gov/airport
 
Update a link
 
Copyright © AirNav, LLC. All rights reserved. Privacy Policy  Contact